sensor_id;sensor_type;location;lat;lon;timestamp;P1;durP1;ratioP1;P2;durP2;ratioP2
5833;SDS011;2943;48.012;10.968;2023-05-07T00:02:07;5.67;;;5.07;;
5833;SDS011;2943;48.012;10.968;2023-05-07T00:04:34;6.23;;;5.10;;
5833;SDS011;2943;48.012;10.968;2023-05-07T00:07:02;7.70;;;5.43;;
5833;SDS011;2943;48.012;10.968;2023-05-07T00:09:29;6.00;;;5.40;;
5833;SDS011;2943;48.012;10.968;2023-05-07T00:11:58;6.50;;;5.90;;
5833;SDS011;2943;48.012;10.968;2023-05-07T00:14:25;7.23;;;5.13;;
5833;SDS011;2943;48.012;10.968;2023-05-07T00:16:52;6.00;;;5.10;;
5833;SDS011;2943;48.012;10.968;2023-05-07T00:19:19;5.67;;;5.10;;
5833;SDS011;2943;48.012;10.968;2023-05-07T00:21:46;5.30;;;4.90;;
5833;SDS011;2943;48.012;10.968;2023-05-07T00:24:13;9.93;;;6.10;;
5833;SDS011;2943;48.012;10.968;2023-05-07T00:26:40;5.73;;;5.13;;
5833;SDS011;2943;48.012;10.968;2023-05-07T00:29:08;5.50;;;4.93;;
5833;SDS011;2943;48.012;10.968;2023-05-07T00:31:35;6.13;;;4.97;;
5833;SDS011;2943;48.012;10.968;2023-05-07T00:34:02;5.27;;;4.77;;
5833;SDS011;2943;48.012;10.968;2023-05-07T00:36:29;6.83;;;6.00;;
5833;SDS011;2943;48.012;10.968;2023-05-07T00:38:56;7.50;;;6.40;;
5833;SDS011;2943;48.012;10.968;2023-05-07T00:41:27;6.47;;;5.83;;
5833;SDS011;2943;48.012;10.968;2023-05-07T00:43:54;6.20;;;5.60;;
5833;SDS011;2943;48.012;10.968;2023-05-07T00:46:22;6.70;;;6.10;;
5833;SDS011;2943;48.012;10.968;2023-05-07T00:48:49;6.03;;;5.43;;
5833;SDS011;2943;48.012;10.968;2023-05-07T00:51:17;7.73;;;5.97;;
5833;SDS011;2943;48.012;10.968;2023-05-07T00:53:44;6.90;;;6.20;;
5833;SDS011;2943;48.012;10.968;2023-05-07T00:56:12;6.23;;;5.63;;
5833;SDS011;2943;48.012;10.968;2023-05-07T00:58:40;6.50;;;5.90;;
5833;SDS011;2943;48.012;10.968;2023-05-07T01:01:09;14.77;;;6.77;;
5833;SDS011;2943;48.012;10.968;2023-05-07T01:03:37;8.87;;;6.60;;
5833;SDS011;2943;48.012;10.968;2023-05-07T01:06:07;7.40;;;6.70;;
5833;SDS011;2943;48.012;10.968;2023-05-07T01:08:37;7.60;;;6.90;;
5833;SDS011;2943;48.012;10.968;2023-05-07T01:11:05;8.37;;;6.80;;
5833;SDS011;2943;48.012;10.968;2023-05-07T01:13:34;9.73;;;6.90;;
5833;SDS011;2943;48.012;10.968;2023-05-07T01:16:02;7.60;;;6.90;;
5833;SDS011;2943;48.012;10.968;2023-05-07T01:18:30;6.77;;;6.17;;
5833;SDS011;2943;48.012;10.968;2023-05-07T01:20:58;8.40;;;6.67;;
5833;SDS011;2943;48.012;10.968;2023-05-07T01:23:29;8.00;;;5.70;;
5833;SDS011;2943;48.012;10.968;2023-05-07T01:25:56;6.40;;;5.80;;
5833;SDS011;2943;48.012;10.968;2023-05-07T01:28:23;7.73;;;6.83;;
5833;SDS011;2943;48.012;10.968;2023-05-07T01:30:51;7.97;;;6.50;;
5833;SDS011;2943;48.012;10.968;2023-05-07T01:33:21;6.40;;;5.70;;
5833;SDS011;2943;48.012;10.968;2023-05-07T01:35:48;5.90;;;5.40;;
5833;SDS011;2943;48.012;10.968;2023-05-07T01:38:18;6.00;;;5.27;;
5833;SDS011;2943;48.012;10.968;2023-05-07T01:40:49;5.90;;;5.40;;
5833;SDS011;2943;48.012;10.968;2023-05-07T01:43:16;6.27;;;5.67;;
5833;SDS011;2943;48.012;10.968;2023-05-07T01:45:44;7.23;;;6.50;;
5833;SDS011;2943;48.012;10.968;2023-05-07T01:48:11;7.40;;;6.70;;
5833;SDS011;2943;48.012;10.968;2023-05-07T01:50:40;11.80;;;5.50;;
5833;SDS011;2943;48.012;10.968;2023-05-07T01:53:09;8.50;;;7.10;;
5833;SDS011;2943;48.012;10.968;2023-05-07T01:55:36;9.43;;;7.47;;
5833;SDS011;2943;48.012;10.968;2023-05-07T01:58:04;7.50;;;6.80;;
5833;SDS011;2943;48.012;10.968;2023-05-07T02:00:31;8.17;;;7.37;;
5833;SDS011;2943;48.012;10.968;2023-05-07T02:02:58;8.00;;;7.20;;
5833;SDS011;2943;48.012;10.968;2023-05-07T02:05:25;8.40;;;7.60;;
5833;SDS011;2943;48.012;10.968;2023-05-07T02:07:52;9.13;;;7.70;;
5833;SDS011;2943;48.012;10.968;2023-05-07T02:10:19;7.10;;;6.40;;
5833;SDS011;2943;48.012;10.968;2023-05-07T02:12:46;12.00;;;6.40;;
5833;SDS011;2943;48.012;10.968;2023-05-07T02:15:14;7.00;;;5.90;;
5833;SDS011;2943;48.012;10.968;2023-05-07T02:20:26;7.50;;;6.27;;
5833;SDS011;2943;48.012;10.968;2023-05-07T02:22:53;6.43;;;5.83;;
5833;SDS011;2943;48.012;10.968;2023-05-07T02:25:20;6.03;;;5.53;;
5833;SDS011;2943;48.012;10.968;2023-05-07T02:27:47;7.13;;;6.40;;
5833;SDS011;2943;48.012;10.968;2023-05-07T02:30:15;7.93;;;7.13;;
5833;SDS011;2943;48.012;10.968;2023-05-07T02:32:42;16.87;;;10.90;;
5833;SDS011;2943;48.012;10.968;2023-05-07T02:35:09;11.47;;;8.67;;
5833;SDS011;2943;48.012;10.968;2023-05-07T02:37:36;8.33;;;6.70;;
5833;SDS011;2943;48.012;10.968;2023-05-07T02:40:04;7.90;;;7.20;;
5833;SDS011;2943;48.012;10.968;2023-05-07T02:42:31;7.83;;;7.03;;
5833;SDS011;2943;48.012;10.968;2023-05-07T02:44:58;7.40;;;6.80;;
5833;SDS011;2943;48.012;10.968;2023-05-07T02:47:27;7.67;;;6.50;;
5833;SDS011;2943;48.012;10.968;2023-05-07T02:49:54;6.60;;;6.00;;
5833;SDS011;2943;48.012;10.968;2023-05-07T02:52:21;7.40;;;6.60;;
5833;SDS011;2943;48.012;10.968;2023-05-07T02:54:47;11.67;;;7.93;;
5833;SDS011;2943;48.012;10.968;2023-05-07T02:57:15;8.23;;;7.43;;
5833;SDS011;2943;48.012;10.968;2023-05-07T02:59:41;9.63;;;7.17;;
5833;SDS011;2943;48.012;10.968;2023-05-07T03:02:08;12.10;;;8.67;;
5833;SDS011;2943;48.012;10.968;2023-05-07T03:04:37;8.50;;;7.47;;
5833;SDS011;2943;48.012;10.968;2023-05-07T03:07:05;8.20;;;7.40;;
5833;SDS011;2943;48.012;10.968;2023-05-07T03:09:31;8.83;;;7.93;;
5833;SDS011;2943;48.012;10.968;2023-05-07T03:11:58;7.77;;;7.00;;
5833;SDS011;2943;48.012;10.968;2023-05-07T03:14:26;7.40;;;6.70;;
5833;SDS011;2943;48.012;10.968;2023-05-07T03:16:53;7.83;;;7.10;;
5833;SDS011;2943;48.012;10.968;2023-05-07T03:19:20;9.63;;;7.90;;
5833;SDS011;2943;48.012;10.968;2023-05-07T03:21:48;11.40;;;7.27;;
5833;SDS011;2943;48.012;10.968;2023-05-07T03:24:15;9.53;;;8.10;;
5833;SDS011;2943;48.012;10.968;2023-05-07T03:26:42;10.40;;;7.63;;
5833;SDS011;2943;48.012;10.968;2023-05-07T03:29:09;8.17;;;7.37;;
5833;SDS011;2943;48.012;10.968;2023-05-07T03:31:36;14.80;;;8.70;;
5833;SDS011;2943;48.012;10.968;2023-05-07T03:34:03;7.50;;;6.80;;
5833;SDS011;2943;48.012;10.968;2023-05-07T03:36:31;8.80;;;7.37;;
5833;SDS011;2943;48.012;10.968;2023-05-07T03:38:59;10.00;;;7.87;;
5833;SDS011;2943;48.012;10.968;2023-05-07T03:41:26;9.67;;;7.77;;
5833;SDS011;2943;48.012;10.968;2023-05-07T03:43:54;8.00;;;7.30;;
5833;SDS011;2943;48.012;10.968;2023-05-07T03:46:21;8.90;;;7.50;;
5833;SDS011;2943;48.012;10.968;2023-05-07T03:48:51;8.40;;;7.53;;
5833;SDS011;2943;48.012;10.968;2023-05-07T03:51:18;12.00;;;7.97;;
5833;SDS011;2943;48.012;10.968;2023-05-07T03:53:44;9.77;;;7.63;;
5833;SDS011;2943;48.012;10.968;2023-05-07T03:56:13;8.00;;;7.20;;
5833;SDS011;2943;48.012;10.968;2023-05-07T03:58:40;10.03;;;7.40;;
5833;SDS011;2943;48.012;10.968;2023-05-07T04:01:07;7.93;;;7.10;;
5833;SDS011;2943;48.012;10.968;2023-05-07T04:03:34;8.53;;;7.67;;
5833;SDS011;2943;48.012;10.968;2023-05-07T04:06:01;8.27;;;7.47;;
5833;SDS011;2943;48.012;10.968;2023-05-07T04:08:28;9.73;;;7.30;;
5833;SDS011;2943;48.012;10.968;2023-05-07T04:10:55;13.50;;;6.67;;
5833;SDS011;2943;48.012;10.968;2023-05-07T04:13:24;7.10;;;6.43;;
5833;SDS011;2943;48.012;10.968;2023-05-07T04:15:51;7.77;;;6.97;;
5833;SDS011;2943;48.012;10.968;2023-05-07T04:18:18;9.90;;;7.20;;
5833;SDS011;2943;48.012;10.968;2023-05-07T04:20:45;7.93;;;7.20;;
5833;SDS011;2943;48.012;10.968;2023-05-07T04:23:12;8.67;;;7.87;;
5833;SDS011;2943;48.012;10.968;2023-05-07T04:25:39;7.97;;;6.70;;
5833;SDS011;2943;48.012;10.968;2023-05-07T04:28:06;9.03;;;8.00;;
5833;SDS011;2943;48.012;10.968;2023-05-07T04:30:34;7.77;;;7.07;;
5833;SDS011;2943;48.012;10.968;2023-05-07T04:33:01;7.83;;;7.00;;
5833;SDS011;2943;48.012;10.968;2023-05-07T04:35:28;7.37;;;6.53;;
5833;SDS011;2943;48.012;10.968;2023-05-07T04:37:56;8.70;;;7.90;;
5833;SDS011;2943;48.012;10.968;2023-05-07T04:40:23;7.90;;;7.00;;
5833;SDS011;2943;48.012;10.968;2023-05-07T04:42:50;8.80;;;7.80;;
5833;SDS011;2943;48.012;10.968;2023-05-07T04:45:18;9.00;;;8.10;;
5833;SDS011;2943;48.012;10.968;2023-05-07T04:47:46;9.33;;;7.50;;
5833;SDS011;2943;48.012;10.968;2023-05-07T04:50:13;8.53;;;7.70;;
5833;SDS011;2943;48.012;10.968;2023-05-07T04:52:40;14.83;;;7.70;;
5833;SDS011;2943;48.012;10.968;2023-05-07T04:55:07;10.33;;;8.10;;
5833;SDS011;2943;48.012;10.968;2023-05-07T04:57:35;7.93;;;7.17;;
5833;SDS011;2943;48.012;10.968;2023-05-07T05:00:03;8.93;;;8.03;;
5833;SDS011;2943;48.012;10.968;2023-05-07T05:02:31;9.30;;;8.20;;
5833;SDS011;2943;48.012;10.968;2023-05-07T05:04:59;9.40;;;8.50;;
5833;SDS011;2943;48.012;10.968;2023-05-07T05:07:26;10.50;;;9.40;;
5833;SDS011;2943;48.012;10.968;2023-05-07T05:09:53;13.73;;;10.20;;
5833;SDS011;2943;48.012;10.968;2023-05-07T05:12:20;12.43;;;11.10;;
5833;SDS011;2943;48.012;10.968;2023-05-07T05:14:47;14.97;;;10.60;;
5833;SDS011;2943;48.012;10.968;2023-05-07T05:17:14;13.07;;;11.53;;
5833;SDS011;2943;48.012;10.968;2023-05-07T05:19:41;11.77;;;10.13;;
5833;SDS011;2943;48.012;10.968;2023-05-07T05:22:09;15.43;;;9.67;;
5833;SDS011;2943;48.012;10.968;2023-05-07T05:24:36;17.90;;;10.43;;
5833;SDS011;2943;48.012;10.968;2023-05-07T05:27:03;11.53;;;10.00;;
5833;SDS011;2943;48.012;10.968;2023-05-07T05:29:30;11.03;;;10.00;;
5833;SDS011;2943;48.012;10.968;2023-05-07T05:31:57;10.40;;;9.30;;
5833;SDS011;2943;48.012;10.968;2023-05-07T05:34:24;10.23;;;9.20;;
5833;SDS011;2943;48.012;10.968;2023-05-07T05:36:51;11.27;;;8.93;;
5833;SDS011;2943;48.012;10.968;2023-05-07T05:39:19;10.33;;;8.60;;
5833;SDS011;2943;48.012;10.968;2023-05-07T05:41:48;9.80;;;8.80;;
5833;SDS011;2943;48.012;10.968;2023-05-07T05:44:15;12.40;;;8.60;;
5833;SDS011;2943;48.012;10.968;2023-05-07T05:46:42;9.80;;;7.50;;
5833;SDS011;2943;48.012;10.968;2023-05-07T05:49:09;9.57;;;8.57;;
5833;SDS011;2943;48.012;10.968;2023-05-07T05:51:35;8.50;;;7.60;;
5833;SDS011;2943;48.012;10.968;2023-05-07T05:54:02;7.90;;;7.20;;
5833;SDS011;2943;48.012;10.968;2023-05-07T05:56:31;8.33;;;7.17;;
5833;SDS011;2943;48.012;10.968;2023-05-07T05:58:58;8.43;;;7.00;;
5833;SDS011;2943;48.012;10.968;2023-05-07T06:01:25;8.40;;;7.40;;
5833;SDS011;2943;48.012;10.968;2023-05-07T06:03:51;8.30;;;7.50;;
5833;SDS011;2943;48.012;10.968;2023-05-07T06:06:18;10.97;;;8.23;;
5833;SDS011;2943;48.012;10.968;2023-05-07T06:08:45;12.37;;;9.60;;
5833;SDS011;2943;48.012;10.968;2023-05-07T06:11:12;13.37;;;8.90;;
5833;SDS011;2943;48.012;10.968;2023-05-07T06:13:40;10.20;;;8.10;;
5833;SDS011;2943;48.012;10.968;2023-05-07T06:16:07;9.20;;;7.13;;
5833;SDS011;2943;48.012;10.968;2023-05-07T06:18:34;8.07;;;7.27;;
5833;SDS011;2943;48.012;10.968;2023-05-07T06:21:02;7.30;;;6.53;;
5833;SDS011;2943;48.012;10.968;2023-05-07T06:23:28;10.07;;;7.70;;
5833;SDS011;2943;48.012;10.968;2023-05-07T06:25:55;6.30;;;5.70;;
5833;SDS011;2943;48.012;10.968;2023-05-07T06:28:22;7.33;;;6.33;;
5833;SDS011;2943;48.012;10.968;2023-05-07T06:30:51;7.03;;;6.00;;
5833;SDS011;2943;48.012;10.968;2023-05-07T06:33:17;6.87;;;6.27;;
5833;SDS011;2943;48.012;10.968;2023-05-07T06:35:45;9.90;;;6.67;;
5833;SDS011;2943;48.012;10.968;2023-05-07T06:38:12;7.90;;;6.53;;
5833;SDS011;2943;48.012;10.968;2023-05-07T06:40:40;7.03;;;5.60;;
5833;SDS011;2943;48.012;10.968;2023-05-07T06:43:07;6.90;;;6.20;;
5833;SDS011;2943;48.012;10.968;2023-05-07T06:45:34;12.97;;;6.77;;
5833;SDS011;2943;48.012;10.968;2023-05-07T06:48:02;7.67;;;6.03;;
5833;SDS011;2943;48.012;10.968;2023-05-07T06:50:30;13.10;;;7.47;;
5833;SDS011;2943;48.012;10.968;2023-05-07T06:52:57;15.90;;;7.30;;
5833;SDS011;2943;48.012;10.968;2023-05-07T06:55:24;8.57;;;5.80;;
5833;SDS011;2943;48.012;10.968;2023-05-07T06:57:51;6.53;;;5.93;;
5833;SDS011;2943;48.012;10.968;2023-05-07T07:00:18;7.68;;;4.65;;
5833;SDS011;2943;48.012;10.968;2023-05-07T07:02:48;14.97;;;5.90;;
5833;SDS011;2943;48.012;10.968;2023-05-07T07:05:20;6.50;;;5.17;;
5833;SDS011;2943;48.012;10.968;2023-05-07T07:07:47;5.90;;;5.30;;
5833;SDS011;2943;48.012;10.968;2023-05-07T07:10:17;5.50;;;5.00;;
5833;SDS011;2943;48.012;10.968;2023-05-07T07:12:45;6.20;;;5.00;;
5833;SDS011;2943;48.012;10.968;2023-05-07T07:15:12;5.30;;;4.80;;
5833;SDS011;2943;48.012;10.968;2023-05-07T07:17:39;6.40;;;4.87;;
5833;SDS011;2943;48.012;10.968;2023-05-07T07:20:07;7.20;;;5.50;;
5833;SDS011;2943;48.012;10.968;2023-05-07T07:22:36;6.10;;;5.50;;
5833;SDS011;2943;48.012;10.968;2023-05-07T07:25:03;5.97;;;5.43;;
5833;SDS011;2943;48.012;10.968;2023-05-07T07:27:30;12.17;;;6.00;;
5833;SDS011;2943;48.012;10.968;2023-05-07T07:29:57;10.13;;;5.47;;
5833;SDS011;2943;48.012;10.968;2023-05-07T07:32:24;7.17;;;5.20;;
5833;SDS011;2943;48.012;10.968;2023-05-07T07:34:51;6.43;;;5.33;;
5833;SDS011;2943;48.012;10.968;2023-05-07T07:37:18;6.53;;;5.10;;
5833;SDS011;2943;48.012;10.968;2023-05-07T07:39:47;6.53;;;5.33;;
5833;SDS011;2943;48.012;10.968;2023-05-07T07:42:14;5.60;;;5.10;;
5833;SDS011;2943;48.012;10.968;2023-05-07T07:44:40;5.37;;;4.80;;
5833;SDS011;2943;48.012;10.968;2023-05-07T07:47:07;8.43;;;4.67;;
5833;SDS011;2943;48.012;10.968;2023-05-07T07:49:34;5.50;;;4.57;;
5833;SDS011;2943;48.012;10.968;2023-05-07T07:52:01;5.53;;;4.63;;
5833;SDS011;2943;48.012;10.968;2023-05-07T07:54:28;4.37;;;3.97;;
5833;SDS011;2943;48.012;10.968;2023-05-07T07:56:57;5.17;;;4.67;;
5833;SDS011;2943;48.012;10.968;2023-05-07T07:59:25;5.23;;;4.73;;
5833;SDS011;2943;48.012;10.968;2023-05-07T08:01:52;8.83;;;4.30;;
5833;SDS011;2943;48.012;10.968;2023-05-07T08:04:22;5.93;;;4.07;;
5833;SDS011;2943;48.012;10.968;2023-05-07T08:06:52;4.53;;;4.13;;
5833;SDS011;2943;48.012;10.968;2023-05-07T08:09:20;7.00;;;5.00;;
5833;SDS011;2943;48.012;10.968;2023-05-07T08:11:47;4.43;;;4.03;;
5833;SDS011;2943;48.012;10.968;2023-05-07T08:14:15;6.47;;;3.57;;
5833;SDS011;2943;48.012;10.968;2023-05-07T08:16:42;5.33;;;4.50;;
5833;SDS011;2943;48.012;10.968;2023-05-07T08:19:09;9.33;;;3.80;;
5833;SDS011;2943;48.012;10.968;2023-05-07T08:21:42;4.00;;;3.60;;
5833;SDS011;2943;48.012;10.968;2023-05-07T08:24:12;5.13;;;3.57;;
5833;SDS011;2943;48.012;10.968;2023-05-07T08:26:39;4.17;;;3.77;;
5833;SDS011;2943;48.012;10.968;2023-05-07T08:29:06;4.23;;;3.80;;
5833;SDS011;2943;48.012;10.968;2023-05-07T08:31:35;4.27;;;3.80;;
5833;SDS011;2943;48.012;10.968;2023-05-07T08:34:03;6.83;;;4.13;;
5833;SDS011;2943;48.012;10.968;2023-05-07T08:36:31;4.23;;;3.83;;
5833;SDS011;2943;48.012;10.968;2023-05-07T08:38:58;4.70;;;3.80;;
5833;SDS011;2943;48.012;10.968;2023-05-07T08:41:25;3.90;;;3.60;;
5833;SDS011;2943;48.012;10.968;2023-05-07T08:43:55;3.53;;;3.23;;
5833;SDS011;2943;48.012;10.968;2023-05-07T08:46:24;3.57;;;3.27;;
5833;SDS011;2943;48.012;10.968;2023-05-07T08:48:54;5.90;;;3.63;;
5833;SDS011;2943;48.012;10.968;2023-05-07T08:51:21;6.13;;;3.37;;
5833;SDS011;2943;48.012;10.968;2023-05-07T08:53:49;3.40;;;3.10;;
5833;SDS011;2943;48.012;10.968;2023-05-07T08:56:16;3.70;;;3.40;;
5833;SDS011;2943;48.012;10.968;2023-05-07T08:58:45;3.23;;;2.87;;
5833;SDS011;2943;48.012;10.968;2023-05-07T09:01:13;3.40;;;3.13;;
5833;SDS011;2943;48.012;10.968;2023-05-07T09:03:40;3.73;;;3.43;;
5833;SDS011;2943;48.012;10.968;2023-05-07T09:06:11;11.23;;;3.23;;
5833;SDS011;2943;48.012;10.968;2023-05-07T09:08:38;3.90;;;3.60;;
5833;SDS011;2943;48.012;10.968;2023-05-07T09:11:05;3.57;;;3.27;;
5833;SDS011;2943;48.012;10.968;2023-05-07T09:13:33;3.33;;;2.77;;
5833;SDS011;2943;48.012;10.968;2023-05-07T09:16:08;4.43;;;3.13;;
5833;SDS011;2943;48.012;10.968;2023-05-07T09:18:40;3.63;;;3.33;;
5833;SDS011;2943;48.012;10.968;2023-05-07T09:21:12;4.40;;;2.93;;
5833;SDS011;2943;48.012;10.968;2023-05-07T09:23:47;6.30;;;3.73;;
5833;SDS011;2943;48.012;10.968;2023-05-07T09:26:17;4.37;;;3.00;;
5833;SDS011;2943;48.012;10.968;2023-05-07T09:28:45;3.47;;;3.17;;
5833;SDS011;2943;48.012;10.968;2023-05-07T09:31:12;5.17;;;3.60;;
5833;SDS011;2943;48.012;10.968;2023-05-07T09:33:39;4.60;;;3.37;;
5833;SDS011;2943;48.012;10.968;2023-05-07T09:36:07;3.53;;;3.23;;
5833;SDS011;2943;48.012;10.968;2023-05-07T09:38:37;3.70;;;3.00;;
5833;SDS011;2943;48.012;10.968;2023-05-07T09:41:05;3.10;;;2.80;;
5833;SDS011;2943;48.012;10.968;2023-05-07T09:43:33;4.53;;;3.17;;
5833;SDS011;2943;48.012;10.968;2023-05-07T09:46:06;13.23;;;2.97;;
5833;SDS011;2943;48.012;10.968;2023-05-07T09:48:37;4.27;;;2.97;;
5833;SDS011;2943;48.012;10.968;2023-05-07T09:51:06;5.50;;;2.87;;
5833;SDS011;2943;48.012;10.968;2023-05-07T09:53:40;4.43;;;2.70;;
5833;SDS011;2943;48.012;10.968;2023-05-07T09:56:07;4.87;;;3.20;;
5833;SDS011;2943;48.012;10.968;2023-05-07T09:58:36;14.33;;;2.93;;
5833;SDS011;2943;48.012;10.968;2023-05-07T10:01:05;3.03;;;2.80;;
5833;SDS011;2943;48.012;10.968;2023-05-07T10:03:33;2.93;;;2.60;;
5833;SDS011;2943;48.012;10.968;2023-05-07T10:06:01;4.87;;;3.03;;
5833;SDS011;2943;48.012;10.968;2023-05-07T10:08:30;3.50;;;2.73;;
5833;SDS011;2943;48.012;10.968;2023-05-07T10:10:58;2.50;;;2.30;;
5833;SDS011;2943;48.012;10.968;2023-05-07T10:13:25;3.17;;;2.87;;
5833;SDS011;2943;48.012;10.968;2023-05-07T10:15:53;4.93;;;2.70;;
5833;SDS011;2943;48.012;10.968;2023-05-07T10:18:21;3.63;;;2.40;;
5833;SDS011;2943;48.012;10.968;2023-05-07T10:20:54;8.70;;;2.40;;
5833;SDS011;2943;48.012;10.968;2023-05-07T10:23:28;2.70;;;2.50;;
5833;SDS011;2943;48.012;10.968;2023-05-07T10:25:59;3.20;;;2.50;;
5833;SDS011;2943;48.012;10.968;2023-05-07T10:28:28;4.43;;;3.00;;
5833;SDS011;2943;48.012;10.968;2023-05-07T10:30:59;3.00;;;2.70;;
5833;SDS011;2943;48.012;10.968;2023-05-07T10:33:34;4.90;;;2.93;;
5833;SDS011;2943;48.012;10.968;2023-05-07T10:36:02;3.30;;;3.00;;
5833;SDS011;2943;48.012;10.968;2023-05-07T10:38:30;3.93;;;2.83;;
5833;SDS011;2943;48.012;10.968;2023-05-07T10:40:59;2.83;;;2.63;;
5833;SDS011;2943;48.012;10.968;2023-05-07T10:43:25;3.20;;;2.50;;
5833;SDS011;2943;48.012;10.968;2023-05-07T10:46:09;3.87;;;2.83;;
5833;SDS011;2943;48.012;10.968;2023-05-07T10:48:49;3.20;;;2.50;;
5833;SDS011;2943;48.012;10.968;2023-05-07T10:51:33;2.60;;;2.33;;
5833;SDS011;2943;48.012;10.968;2023-05-07T10:54:20;4.57;;;2.97;;
5833;SDS011;2943;48.012;10.968;2023-05-07T10:56:50;7.93;;;2.43;;
5833;SDS011;2943;48.012;10.968;2023-05-07T10:59:33;4.07;;;2.70;;
5833;SDS011;2943;48.012;10.968;2023-05-07T11:02:06;3.23;;;2.90;;
5833;SDS011;2943;48.012;10.968;2023-05-07T11:04:34;3.57;;;3.23;;
5833;SDS011;2943;48.012;10.968;2023-05-07T11:09:58;3.30;;;3.00;;
5833;SDS011;2943;48.012;10.968;2023-05-07T11:12:52;4.77;;;2.47;;
5833;SDS011;2943;48.012;10.968;2023-05-07T11:15:39;2.87;;;2.37;;
5833;SDS011;2943;48.012;10.968;2023-05-07T11:18:11;3.20;;;2.50;;
5833;SDS011;2943;48.012;10.968;2023-05-07T11:20:49;4.93;;;3.17;;
5833;SDS011;2943;48.012;10.968;2023-05-07T11:26:21;4.40;;;3.40;;
5833;SDS011;2943;48.012;10.968;2023-05-07T11:28:50;3.93;;;2.80;;
5833;SDS011;2943;48.012;10.968;2023-05-07T11:31:20;4.47;;;2.80;;
5833;SDS011;2943;48.012;10.968;2023-05-07T11:33:49;3.33;;;2.80;;
5833;SDS011;2943;48.012;10.968;2023-05-07T11:36:17;8.80;;;2.90;;
5833;SDS011;2943;48.012;10.968;2023-05-07T11:38:46;2.80;;;2.60;;
5833;SDS011;2943;48.012;10.968;2023-05-07T11:41:16;11.43;;;3.57;;
5833;SDS011;2943;48.012;10.968;2023-05-07T11:43:58;4.83;;;3.13;;
5833;SDS011;2943;48.012;10.968;2023-05-07T11:46:26;3.00;;;2.70;;
5833;SDS011;2943;48.012;10.968;2023-05-07T11:48:55;3.50;;;2.73;;
5833;SDS011;2943;48.012;10.968;2023-05-07T11:51:25;2.97;;;2.67;;
5833;SDS011;2943;48.012;10.968;2023-05-07T11:53:52;3.77;;;2.73;;
5833;SDS011;2943;48.012;10.968;2023-05-07T11:56:20;8.10;;;3.17;;
5833;SDS011;2943;48.012;10.968;2023-05-07T11:58:47;3.93;;;2.60;;
5833;SDS011;2943;48.012;10.968;2023-05-07T12:01:17;3.37;;;3.10;;
5833;SDS011;2943;48.012;10.968;2023-05-07T12:03:44;4.40;;;2.97;;
5833;SDS011;2943;48.012;10.968;2023-05-07T12:06:12;3.90;;;3.20;;
5833;SDS011;2943;48.012;10.968;2023-05-07T12:08:41;2.70;;;2.50;;
5833;SDS011;2943;48.012;10.968;2023-05-07T12:11:09;6.03;;;2.80;;
5833;SDS011;2943;48.012;10.968;2023-05-07T12:13:41;4.63;;;2.97;;
5833;SDS011;2943;48.012;10.968;2023-05-07T12:16:08;5.47;;;3.00;;
5833;SDS011;2943;48.012;10.968;2023-05-07T12:18:37;3.03;;;2.73;;
5833;SDS011;2943;48.012;10.968;2023-05-07T12:21:05;4.10;;;3.10;;
5833;SDS011;2943;48.012;10.968;2023-05-07T12:23:33;3.43;;;2.70;;
5833;SDS011;2943;48.012;10.968;2023-05-07T12:26:01;4.90;;;2.80;;
5833;SDS011;2943;48.012;10.968;2023-05-07T12:28:30;2.90;;;2.70;;
5833;SDS011;2943;48.012;10.968;2023-05-07T12:31:04;4.43;;;2.80;;
5833;SDS011;2943;48.012;10.968;2023-05-07T12:33:45;3.10;;;2.80;;
5833;SDS011;2943;48.012;10.968;2023-05-07T12:36:20;2.93;;;2.73;;
5833;SDS011;2943;48.012;10.968;2023-05-07T12:39:05;4.20;;;2.67;;
5833;SDS011;2943;48.012;10.968;2023-05-07T12:41:53;3.20;;;2.40;;
5833;SDS011;2943;48.012;10.968;2023-05-07T12:45:09;2.70;;;2.40;;
5833;SDS011;2943;48.012;10.968;2023-05-07T12:47:43;4.03;;;2.67;;
5833;SDS011;2943;48.012;10.968;2023-05-07T12:50:32;3.90;;;3.07;;
5833;SDS011;2943;48.012;10.968;2023-05-07T12:53:04;5.60;;;2.47;;
5833;SDS011;2943;48.012;10.968;2023-05-07T12:55:40;4.93;;;2.80;;
5833;SDS011;2943;48.012;10.968;2023-05-07T12:58:08;3.07;;;2.67;;
5833;SDS011;2943;48.012;10.968;2023-05-07T13:00:42;2.83;;;2.50;;
5833;SDS011;2943;48.012;10.968;2023-05-07T13:03:09;4.30;;;2.70;;
5833;SDS011;2943;48.012;10.968;2023-05-07T13:05:38;4.00;;;2.60;;
5833;SDS011;2943;48.012;10.968;2023-05-07T13:08:05;3.33;;;2.70;;
5833;SDS011;2943;48.012;10.968;2023-05-07T13:10:34;2.47;;;2.27;;
5833;SDS011;2943;48.012;10.968;2023-05-07T13:13:01;4.30;;;2.50;;
5833;SDS011;2943;48.012;10.968;2023-05-07T13:15:28;2.90;;;2.70;;
5833;SDS011;2943;48.012;10.968;2023-05-07T13:17:55;2.70;;;2.50;;
5833;SDS011;2943;48.012;10.968;2023-05-07T13:20:22;4.13;;;2.77;;
5833;SDS011;2943;48.012;10.968;2023-05-07T13:22:51;4.47;;;2.80;;
5833;SDS011;2943;48.012;10.968;2023-05-07T13:25:18;2.83;;;2.30;;
5833;SDS011;2943;48.012;10.968;2023-05-07T13:27:45;3.10;;;2.80;;
5833;SDS011;2943;48.012;10.968;2023-05-07T13:30:12;3.00;;;2.63;;
5833;SDS011;2943;48.012;10.968;2023-05-07T13:32:39;3.73;;;2.80;;
5833;SDS011;2943;48.012;10.968;2023-05-07T13:35:11;3.03;;;2.70;;
5833;SDS011;2943;48.012;10.968;2023-05-07T13:38:01;3.00;;;2.30;;
5833;SDS011;2943;48.012;10.968;2023-05-07T13:40:28;2.30;;;2.10;;
5833;SDS011;2943;48.012;10.968;2023-05-07T13:42:56;3.40;;;2.33;;
5833;SDS011;2943;48.012;10.968;2023-05-07T13:45:23;3.50;;;2.60;;
5833;SDS011;2943;48.012;10.968;2023-05-07T13:47:51;4.23;;;2.47;;
5833;SDS011;2943;48.012;10.968;2023-05-07T13:50:18;2.47;;;2.27;;
5833;SDS011;2943;48.012;10.968;2023-05-07T13:52:45;4.00;;;2.53;;
5833;SDS011;2943;48.012;10.968;2023-05-07T13:55:17;2.63;;;2.43;;
5833;SDS011;2943;48.012;10.968;2023-05-07T13:57:44;2.93;;;2.33;;
5833;SDS011;2943;48.012;10.968;2023-05-07T14:00:14;2.87;;;2.60;;
5833;SDS011;2943;48.012;10.968;2023-05-07T14:02:56;2.73;;;2.53;;
5833;SDS011;2943;48.012;10.968;2023-05-07T14:05:23;3.63;;;2.63;;
5833;SDS011;2943;48.012;10.968;2023-05-07T14:07:55;2.87;;;2.57;;
5833;SDS011;2943;48.012;10.968;2023-05-07T14:10:43;2.80;;;2.60;;
5833;SDS011;2943;48.012;10.968;2023-05-07T14:13:10;3.40;;;3.10;;
5833;SDS011;2943;48.012;10.968;2023-05-07T14:15:37;4.03;;;2.47;;
5833;SDS011;2943;48.012;10.968;2023-05-07T14:18:04;4.27;;;2.80;;
5833;SDS011;2943;48.012;10.968;2023-05-07T14:20:31;4.07;;;2.93;;
5833;SDS011;2943;48.012;10.968;2023-05-07T14:22:58;2.80;;;2.60;;
5833;SDS011;2943;48.012;10.968;2023-05-07T14:25:26;3.37;;;3.07;;
5833;SDS011;2943;48.012;10.968;2023-05-07T14:27:59;5.63;;;3.03;;
5833;SDS011;2943;48.012;10.968;2023-05-07T14:30:26;3.27;;;2.57;;
5833;SDS011;2943;48.012;10.968;2023-05-07T14:32:53;4.40;;;3.07;;
5833;SDS011;2943;48.012;10.968;2023-05-07T14:35:22;4.90;;;3.33;;
5833;SDS011;2943;48.012;10.968;2023-05-07T14:37:49;3.03;;;2.70;;
5833;SDS011;2943;48.012;10.968;2023-05-07T14:40:16;5.30;;;2.80;;
5833;SDS011;2943;48.012;10.968;2023-05-07T14:42:43;3.30;;;2.97;;
5833;SDS011;2943;48.012;10.968;2023-05-07T14:45:11;3.10;;;2.90;;
5833;SDS011;2943;48.012;10.968;2023-05-07T14:47:38;3.10;;;2.57;;
5833;SDS011;2943;48.012;10.968;2023-05-07T14:50:05;2.93;;;2.73;;
5833;SDS011;2943;48.012;10.968;2023-05-07T14:52:34;8.20;;;2.90;;
5833;SDS011;2943;48.012;10.968;2023-05-07T14:55:01;6.47;;;3.40;;
5833;SDS011;2943;48.012;10.968;2023-05-07T14:57:29;5.27;;;3.03;;
5833;SDS011;2943;48.012;10.968;2023-05-07T14:59:59;3.77;;;3.07;;
5833;SDS011;2943;48.012;10.968;2023-05-07T15:02:31;6.63;;;2.70;;
5833;SDS011;2943;48.012;10.968;2023-05-07T15:05:00;3.70;;;2.60;;
5833;SDS011;2943;48.012;10.968;2023-05-07T15:07:30;4.93;;;3.00;;
5833;SDS011;2943;48.012;10.968;2023-05-07T15:09:57;4.13;;;3.07;;
5833;SDS011;2943;48.012;10.968;2023-05-07T15:12:26;6.43;;;2.80;;
5833;SDS011;2943;48.012;10.968;2023-05-07T15:14:53;3.93;;;2.57;;
5833;SDS011;2943;48.012;10.968;2023-05-07T15:17:20;2.80;;;2.60;;
5833;SDS011;2943;48.012;10.968;2023-05-07T15:19:48;6.13;;;3.20;;